createdAt,value
2018-12-03T00:00:12.567Z,2.30
2018-12-03T00:01:13.176Z,2.10
2018-12-03T00:02:12.517Z,1.90
2018-12-03T00:03:12.495Z,2.20
2018-12-03T00:04:12.511Z,1.60
2018-12-03T00:05:12.551Z,2.00
2018-12-03T00:06:12.457Z,2.10
2018-12-03T00:07:12.421Z,1.60
2018-12-03T00:08:12.400Z,3.00
2018-12-03T00:09:16.171Z,1.50
2018-12-03T00:10:12.389Z,1.60
2018-12-03T00:11:12.366Z,3.10
2018-12-03T00:12:12.335Z,1.90
2018-12-03T00:13:12.315Z,2.00
2018-12-03T00:14:12.291Z,1.80
2018-12-03T00:15:12.273Z,1.50
2018-12-03T00:16:12.260Z,2.40
2018-12-03T00:17:12.256Z,1.30
2018-12-03T00:18:12.224Z,2.50
2018-12-03T00:19:12.205Z,1.20
2018-12-03T00:20:12.187Z,1.50
2018-12-03T00:21:12.169Z,1.50
2018-12-03T00:22:12.171Z,1.30
2018-12-03T00:23:12.139Z,1.50
2018-12-03T00:24:12.109Z,1.70
2018-12-03T00:25:12.093Z,1.50
2018-12-03T00:26:12.074Z,2.70
2018-12-03T00:27:12.058Z,1.70
2018-12-03T00:28:12.056Z,1.60
2018-12-03T00:29:12.021Z,1.60
2018-12-03T00:30:12.004Z,1.60
2018-12-03T00:31:11.980Z,2.40
2018-12-03T00:32:11.985Z,1.80
2018-12-03T00:33:11.949Z,2.10
2018-12-03T00:34:11.935Z,3.30
2018-12-03T00:35:11.907Z,2.20
2018-12-03T00:36:11.892Z,2.40
2018-12-03T00:37:11.876Z,3.20
2018-12-03T00:38:11.878Z,2.40
2018-12-03T00:39:11.840Z,2.60
2018-12-03T00:40:11.819Z,2.60
2018-12-03T00:41:11.800Z,3.40
2018-12-03T00:42:12.754Z,3.60
2018-12-03T00:43:11.774Z,2.50
2018-12-03T00:44:11.756Z,3.40
2018-12-03T00:45:11.729Z,3.30
2018-12-03T00:46:11.726Z,2.90
2018-12-03T00:47:11.691Z,3.80
2018-12-03T00:48:11.689Z,4.30
2018-12-03T00:49:11.657Z,4.50
2018-12-03T00:50:11.640Z,3.60
2018-12-03T00:51:11.620Z,4.20
2018-12-03T00:52:11.620Z,3.80
2018-12-03T00:53:11.584Z,4.50
2018-12-03T00:54:11.566Z,4.10
2018-12-03T00:55:11.541Z,6.20
2018-12-03T00:56:11.530Z,5.10
2018-12-03T00:57:11.543Z,4.20
2018-12-03T00:58:11.495Z,4.50
2018-12-03T00:59:11.474Z,6.80
2018-12-03T01:00:11.453Z,4.60
2018-12-03T01:01:11.437Z,6.50
2018-12-03T01:02:11.419Z,5.00
2018-12-03T01:03:11.417Z,4.70
2018-12-03T01:04:11.383Z,6.10
2018-12-03T01:05:11.367Z,4.60
2018-12-03T01:06:11.347Z,4.60
2018-12-03T01:07:11.333Z,5.20
2018-12-03T01:08:11.333Z,4.10
2018-12-03T01:09:11.294Z,4.90
2018-12-03T01:11:53.661Z,6.60
2018-12-03T01:12:53.654Z,5.30
2018-12-03T01:13:53.619Z,5.20
2018-12-03T01:14:53.597Z,5.40
2018-12-03T01:15:53.575Z,5.20
2018-12-03T01:16:53.564Z,5.30
2018-12-03T01:17:53.542Z,5.80
2018-12-03T01:18:53.543Z,6.20
2018-12-03T01:19:53.512Z,7.50
2018-12-03T01:20:53.489Z,5.00
2018-12-03T01:21:53.473Z,5.90
2018-12-03T01:22:53.472Z,5.20
2018-12-03T01:23:53.441Z,4.40
2018-12-03T01:24:53.443Z,4.00
2018-12-03T01:25:53.417Z,4.90
2018-12-03T01:26:53.379Z,6.00
2018-12-03T01:27:53.369Z,4.90
2018-12-03T01:28:53.387Z,5.00
2018-12-03T01:29:53.331Z,6.50
2018-12-03T01:30:53.318Z,5.30
2018-12-03T01:31:53.291Z,5.90
2018-12-03T01:32:53.274Z,5.70
2018-12-03T01:33:53.258Z,4.70
2018-12-03T01:34:53.255Z,4.40
2018-12-03T01:35:53.219Z,4.10
2018-12-03T01:36:53.198Z,5.70
2018-12-03T01:37:53.188Z,5.20
2018-12-03T01:38:53.170Z,5.60
2018-12-03T01:39:53.168Z,5.10
2018-12-03T01:40:53.127Z,5.40
2018-12-03T01:41:53.114Z,5.70
2018-12-03T01:42:53.092Z,5.50
2018-12-03T01:43:53.113Z,7.60
2018-12-03T01:44:53.057Z,6.00
2018-12-03T01:45:53.073Z,4.60
2018-12-03T01:46:53.025Z,6.40
2018-12-03T01:47:53.007Z,3.80
2018-12-03T01:48:52.985Z,4.40
2018-12-03T01:49:52.975Z,6.10
2018-12-03T01:50:52.967Z,5.30
2018-12-03T01:51:52.933Z,7.10
2018-12-03T01:52:52.912Z,5.70
2018-12-03T01:53:52.898Z,7.90
2018-12-03T01:56:35.177Z,6.50
2018-12-03T01:57:35.145Z,4.00
2018-12-03T01:58:35.132Z,4.90
2018-12-03T01:59:35.227Z,6.20
2018-12-03T02:00:35.111Z,7.90
2018-12-03T02:01:35.070Z,6.80
2018-12-03T02:02:35.061Z,6.40
2018-12-03T02:03:35.031Z,7.10
2018-12-03T02:04:35.018Z,5.60
2018-12-03T02:05:35.002Z,7.60
2018-12-03T02:06:35.000Z,7.50
2018-12-03T02:07:34.977Z,7.00
2018-12-03T02:08:34.943Z,7.20
2018-12-03T02:09:34.931Z,6.40
2018-12-03T02:10:34.909Z,5.10
2018-12-03T02:11:34.901Z,7.10
2018-12-03T02:12:34.906Z,6.40
2018-12-03T02:13:34.866Z,7.60
2018-12-03T02:14:34.841Z,5.70
2018-12-03T02:15:34.822Z,6.10
2018-12-03T02:16:34.804Z,7.10
2018-12-03T02:17:34.785Z,5.10
2018-12-03T02:18:34.785Z,8.10
2018-12-03T02:19:34.750Z,6.80
2018-12-03T02:20:34.734Z,8.80
2018-12-03T02:21:34.715Z,6.10
2018-12-03T02:22:34.697Z,6.90
2018-12-03T02:23:34.693Z,8.60
2018-12-03T02:24:34.666Z,7.70
2018-12-03T02:25:34.644Z,7.70
2018-12-03T02:26:34.625Z,7.60
2018-12-03T02:27:34.627Z,5.50
2018-12-03T02:28:34.590Z,6.00
2018-12-03T02:29:34.590Z,5.20
2018-12-03T02:30:34.555Z,6.70
2018-12-03T02:31:34.554Z,5.30
2018-12-03T02:32:34.520Z,6.10
2018-12-03T02:33:34.501Z,8.40
2018-12-03T02:34:34.500Z,6.50
2018-12-03T02:35:34.465Z,5.60
2018-12-03T02:36:34.445Z,5.00
2018-12-03T02:37:34.430Z,5.80
2018-12-03T02:38:34.413Z,7.30
2018-12-03T02:39:34.411Z,7.80
2018-12-03T02:40:34.375Z,7.00
2018-12-03T02:43:16.680Z,6.30
2018-12-03T02:44:16.648Z,7.00
2018-12-03T02:45:16.673Z,7.20
2018-12-03T02:46:16.619Z,9.10
2018-12-03T02:47:16.614Z,6.90
2018-12-03T02:48:16.599Z,7.20
2018-12-03T02:49:16.565Z,7.80
2018-12-03T02:50:16.540Z,7.60
2018-12-03T02:51:16.545Z,8.20
2018-12-03T02:52:16.517Z,11.30
2018-12-03T02:53:16.488Z,6.20
2018-12-03T02:54:16.476Z,8.90
2018-12-03T02:55:16.473Z,8.50
2018-12-03T02:56:16.439Z,7.90
2018-12-03T02:57:16.423Z,7.30
2018-12-03T02:58:16.401Z,8.40
2018-12-03T02:59:16.400Z,7.30
2018-12-03T03:00:16.367Z,10.20
2018-12-03T03:01:16.370Z,7.30
2018-12-03T03:02:16.330Z,7.20
2018-12-03T03:03:16.315Z,8.00
2018-12-03T03:04:16.292Z,7.80
2018-12-03T03:05:16.275Z,7.90
2018-12-03T03:06:16.272Z,5.60
2018-12-03T03:07:16.237Z,4.80
2018-12-03T03:08:16.224Z,6.90
2018-12-03T03:09:16.204Z,6.40
2018-12-03T03:10:16.194Z,9.20
2018-12-03T03:11:16.183Z,7.00
2018-12-03T03:12:16.150Z,6.40
2018-12-03T03:13:16.125Z,7.20
2018-12-03T03:14:16.113Z,6.60
2018-12-03T03:15:16.114Z,6.30
2018-12-03T03:16:16.095Z,7.20
2018-12-03T03:17:16.058Z,7.60
2018-12-03T03:18:16.037Z,8.70
2018-12-03T03:19:16.022Z,7.00
2018-12-03T03:20:16.015Z,8.90
2018-12-03T03:21:15.994Z,8.00
2018-12-03T03:22:15.989Z,7.40
2018-12-03T03:23:15.955Z,10.10
2018-12-03T03:24:15.948Z,7.00
2018-12-03T03:25:15.914Z,8.20
2018-12-03T03:26:15.903Z,8.00
2018-12-03T03:27:15.880Z,7.60
2018-12-03T03:28:15.862Z,9.20
2018-12-03T03:29:15.863Z,8.80
2018-12-03T03:30:15.830Z,5.80
2018-12-03T03:31:15.807Z,6.60
2018-12-03T03:32:15.790Z,9.70
2018-12-03T03:33:15.771Z,6.30
2018-12-03T03:34:15.761Z,7.30
2018-12-03T03:35:15.730Z,7.50
2018-12-03T03:36:15.717Z,5.90
2018-12-03T03:37:15.698Z,7.90
2018-12-03T03:38:15.695Z,6.80
2018-12-03T03:39:15.661Z,7.10
2018-12-03T03:40:15.643Z,6.80
2018-12-03T03:41:15.622Z,7.30
2018-12-03T03:42:15.606Z,6.70
2018-12-03T03:43:15.605Z,6.10
2018-12-03T03:44:15.571Z,5.50
2018-12-03T03:45:15.551Z,5.90
2018-12-03T03:46:15.530Z,6.00
2018-12-03T03:47:15.522Z,6.60
2018-12-03T03:48:15.517Z,5.50
2018-12-03T03:49:15.482Z,5.70
2018-12-03T03:50:15.461Z,5.20
2018-12-03T03:51:15.447Z,4.30
2018-12-03T03:52:15.429Z,4.70
2018-12-03T03:53:15.423Z,6.10
2018-12-03T03:54:15.411Z,5.20
2018-12-03T03:55:15.372Z,5.00
2018-12-03T03:56:15.355Z,5.00
2018-12-03T03:57:15.337Z,4.60
2018-12-03T03:58:15.321Z,4.70
2018-12-03T03:59:15.298Z,5.90
2018-12-03T04:00:15.306Z,4.90
2018-12-03T04:01:15.262Z,5.10
2018-12-03T04:02:15.246Z,4.90
2018-12-03T04:03:15.228Z,5.80
2018-12-03T04:04:15.210Z,4.30
2018-12-03T04:05:15.211Z,3.80
2018-12-03T04:06:15.177Z,6.50
2018-12-03T04:07:15.156Z,4.40
2018-12-03T04:08:15.138Z,3.60
2018-12-03T04:09:15.119Z,5.70
2018-12-03T04:10:15.126Z,4.00
2018-12-03T04:11:15.082Z,3.80
2018-12-03T04:12:15.078Z,4.20
2018-12-03T04:13:15.062Z,3.00
2018-12-03T04:14:15.044Z,3.20
2018-12-03T04:15:15.019Z,3.50
2018-12-03T04:16:14.986Z,4.40
2018-12-03T04:17:14.975Z,3.60
2018-12-03T04:18:14.971Z,3.20
2018-12-03T04:19:14.939Z,3.50
2018-12-03T04:20:14.935Z,4.10
2018-12-03T04:21:14.902Z,3.20
2018-12-03T04:22:14.883Z,3.70
2018-12-03T04:23:14.865Z,4.60
2018-12-03T04:24:14.869Z,3.60
2018-12-03T04:25:14.846Z,3.70
2018-12-03T04:26:14.810Z,2.90
2018-12-03T04:27:14.789Z,3.10
2018-12-03T04:28:14.775Z,2.70
2018-12-03T04:29:14.762Z,4.00
2018-12-03T04:30:14.738Z,3.30
2018-12-03T04:31:14.738Z,3.30
2018-12-03T04:32:14.716Z,3.00
2018-12-03T04:33:14.682Z,4.20
2018-12-03T04:34:14.666Z,3.00
2018-12-03T04:35:14.649Z,2.30
2018-12-03T04:36:14.652Z,4.00
2018-12-03T04:37:14.610Z,2.70
2018-12-03T04:38:14.594Z,2.60
2018-12-03T04:39:14.573Z,2.90
2018-12-03T04:40:14.564Z,3.30
2018-12-03T04:41:14.559Z,2.00
2018-12-03T04:42:14.522Z,1.90
2018-12-03T04:43:14.507Z,1.90
2018-12-03T04:44:14.487Z,2.80
2018-12-03T04:45:14.471Z,3.10
2018-12-03T04:46:14.452Z,2.20
2018-12-03T04:47:14.457Z,3.10
2018-12-03T04:48:14.416Z,2.70
2018-12-03T04:49:14.401Z,3.60
2018-12-03T04:50:14.377Z,3.60
2018-12-03T04:51:14.361Z,3.00
2018-12-03T04:52:14.363Z,2.20
2018-12-03T04:53:14.349Z,3.40
2018-12-03T04:54:14.305Z,2.40
2018-12-03T04:55:14.292Z,2.70
2018-12-03T04:56:14.281Z,2.80
2018-12-03T04:57:14.257Z,3.20
2018-12-03T04:58:14.255Z,2.70
2018-12-03T04:59:14.220Z,2.90
2018-12-03T05:00:14.204Z,2.10
2018-12-03T05:01:14.194Z,4.40
2018-12-03T05:02:14.168Z,2.80
2018-12-03T05:03:14.178Z,2.30
2018-12-03T05:04:14.129Z,2.20
2018-12-03T05:05:14.109Z,4.30
2018-12-03T05:06:14.098Z,2.30
2018-12-03T05:07:14.079Z,2.60
2018-12-03T05:08:14.077Z,2.20
2018-12-03T05:09:14.043Z,3.10
2018-12-03T05:10:14.021Z,4.10
2018-12-03T05:11:14.005Z,4.20
2018-12-03T05:12:13.991Z,3.40
2018-12-03T05:13:13.972Z,2.70
2018-12-03T05:14:13.973Z,3.10
2018-12-03T05:15:13.933Z,3.00
2018-12-03T05:16:13.934Z,3.80
2018-12-03T05:17:13.901Z,3.40
2018-12-03T05:18:13.915Z,2.90
2018-12-03T05:19:13.865Z,3.80
2018-12-03T05:20:13.859Z,2.40
2018-12-03T05:21:13.829Z,2.50
2018-12-03T05:22:13.837Z,3.70
2018-12-03T05:23:13.799Z,3.30
2018-12-03T05:24:13.806Z,2.50
2018-12-03T05:25:18.907Z,3.80
2018-12-03T05:26:13.741Z,3.20
2018-12-03T05:27:13.719Z,4.10
2018-12-03T05:28:13.704Z,3.30
2018-12-03T05:29:13.685Z,3.40
2018-12-03T05:30:13.675Z,4.20
2018-12-03T05:31:13.647Z,2.10
2018-12-03T05:32:13.633Z,3.40
2018-12-03T05:33:13.622Z,3.60
2018-12-03T05:34:13.622Z,3.70
2018-12-03T05:35:13.572Z,3.60
2018-12-03T05:36:13.563Z,3.40
2018-12-03T05:37:13.544Z,3.20
2018-12-03T05:38:13.526Z,4.40
2018-12-03T05:39:13.548Z,4.30
2018-12-03T05:40:13.501Z,2.20
2018-12-03T05:41:13.492Z,3.40
2018-12-03T05:42:13.448Z,3.30
2018-12-03T05:43:13.435Z,3.50
2018-12-03T05:44:13.416Z,3.30
2018-12-03T05:45:13.402Z,2.90
2018-12-03T05:46:13.381Z,3.70
2018-12-03T05:47:13.391Z,3.70
2018-12-03T05:48:13.346Z,3.00
2018-12-03T05:49:13.323Z,4.10
2018-12-03T05:50:13.335Z,4.80
2018-12-03T05:51:13.344Z,2.90
2018-12-03T05:52:13.267Z,4.30
2018-12-03T05:53:13.252Z,3.70
2018-12-03T05:54:13.234Z,4.50
2018-12-03T05:55:13.218Z,4.70
2018-12-03T05:56:13.225Z,4.40
2018-12-03T05:57:13.184Z,4.80
2018-12-03T05:58:13.160Z,4.60
2018-12-03T05:59:13.151Z,5.70
2018-12-03T06:00:13.132Z,4.10
2018-12-03T06:01:13.113Z,3.40
2018-12-03T06:02:13.110Z,4.50
2018-12-03T06:03:13.073Z,4.30
2018-12-03T06:04:13.070Z,5.10
2018-12-03T06:05:13.043Z,4.50
2018-12-03T06:06:13.024Z,4.90
2018-12-03T06:07:13.027Z,4.40
2018-12-03T06:08:13.006Z,5.50
2018-12-03T06:09:12.967Z,6.00
2018-12-03T06:10:12.958Z,5.70
2018-12-03T06:11:12.932Z,5.60
2018-12-03T06:12:12.914Z,5.50
2018-12-03T06:13:12.914Z,6.60
2018-12-03T06:14:12.878Z,5.80
2018-12-03T06:15:12.858Z,6.50
2018-12-03T06:16:12.848Z,7.20
2018-12-03T06:17:12.817Z,7.60
2018-12-03T06:18:12.820Z,6.40
2018-12-03T06:19:12.800Z,7.30
2018-12-03T06:20:12.774Z,7.00
2018-12-03T06:21:12.748Z,8.30
2018-12-03T06:22:12.726Z,7.20
2018-12-03T06:23:12.709Z,8.30
2018-12-03T06:24:12.708Z,8.50
2018-12-03T06:25:12.675Z,6.50
2018-12-03T06:26:12.659Z,6.90
2018-12-03T06:27:12.637Z,5.10
2018-12-03T06:28:12.619Z,5.60
2018-12-03T06:29:12.623Z,8.10
2018-12-03T06:30:13.253Z,6.10
2018-12-03T06:31:12.564Z,7.70
2018-12-03T06:32:12.547Z,8.20
2018-12-03T06:33:12.528Z,7.30
2018-12-03T06:34:12.525Z,8.00
2018-12-03T06:35:12.490Z,6.20
2018-12-03T06:36:12.486Z,7.90
2018-12-03T06:37:12.459Z,6.50
2018-12-03T06:38:15.371Z,6.00
2018-12-03T06:39:12.421Z,6.50
2018-12-03T06:40:12.398Z,5.80
2018-12-03T06:41:12.398Z,4.50
2018-12-03T06:42:12.364Z,5.60
2018-12-03T06:43:12.353Z,6.70
2018-12-03T06:44:12.320Z,4.40
2018-12-03T06:45:12.304Z,6.40
2018-12-03T06:46:12.303Z,4.80
2018-12-03T06:47:12.271Z,4.90
2018-12-03T06:48:12.246Z,4.60
2018-12-03T06:49:12.231Z,4.40
2018-12-03T06:50:12.216Z,6.10
2018-12-03T06:51:12.216Z,5.10
2018-12-03T06:52:12.179Z,4.00
2018-12-03T06:53:12.187Z,5.60
2018-12-03T06:54:12.158Z,5.10
2018-12-03T06:55:12.123Z,4.20
2018-12-03T06:56:12.121Z,3.70
2018-12-03T06:57:12.085Z,4.90
2018-12-03T06:58:12.101Z,5.20
2018-12-03T06:59:12.052Z,4.50
2018-12-03T07:00:12.029Z,4.60
2018-12-03T07:01:12.041Z,4.10
2018-12-03T07:02:11.995Z,3.70
2018-12-03T07:03:11.981Z,3.90
2018-12-03T07:04:11.959Z,4.00
2018-12-03T07:05:11.943Z,5.30
2018-12-03T07:06:11.932Z,6.50
2018-12-03T07:07:11.920Z,4.80
2018-12-03T07:08:11.881Z,4.60
2018-12-03T07:09:11.869Z,5.40
2018-12-03T07:10:11.846Z,5.60
2018-12-03T07:11:11.849Z,7.60
2018-12-03T07:12:11.831Z,7.40
2018-12-03T07:13:11.793Z,7.80
2018-12-03T07:14:11.776Z,8.20
2018-12-03T07:15:11.757Z,7.80
2018-12-03T07:16:11.740Z,9.40
2018-12-03T07:17:12.851Z,8.20
2018-12-03T07:18:11.726Z,8.30
2018-12-03T07:19:11.694Z,9.70
2018-12-03T07:20:11.675Z,10.60
2018-12-03T07:21:11.672Z,8.10
2018-12-03T07:22:11.634Z,8.60
2018-12-03T07:23:11.670Z,8.50
2018-12-03T07:24:11.591Z,7.00
2018-12-03T07:25:11.572Z,10.90
2018-12-03T07:26:11.554Z,9.40
2018-12-03T07:27:11.562Z,8.50
2018-12-03T07:28:11.520Z,10.00
2018-12-03T07:30:53.735Z,10.30
2018-12-03T07:31:53.714Z,9.20
2018-12-03T07:32:53.719Z,10.50
2018-12-03T07:33:53.675Z,10.60
2018-12-03T07:34:53.668Z,10.50
2018-12-03T07:35:53.641Z,12.20
2018-12-03T07:36:53.622Z,10.60
2018-12-03T07:37:53.618Z,10.70
2018-12-03T07:38:53.582Z,7.50
2018-12-03T07:39:53.570Z,10.90
2018-12-03T07:40:53.555Z,9.30
2018-12-03T07:41:53.556Z,11.90
2018-12-03T07:42:53.524Z,9.50
2018-12-03T07:43:53.490Z,10.20
2018-12-03T07:44:53.471Z,10.70
2018-12-03T07:45:53.480Z,9.80
2018-12-03T07:46:53.442Z,11.40
2018-12-03T07:47:53.477Z,9.40
2018-12-03T07:48:53.429Z,11.10
2018-12-03T07:49:53.393Z,10.30
2018-12-03T07:50:53.367Z,9.10
2018-12-03T07:51:53.351Z,9.80
2018-12-03T07:52:53.331Z,10.50
2018-12-03T07:53:53.310Z,12.20
2018-12-03T07:54:53.310Z,10.00
2018-12-03T07:55:53.276Z,9.70
2018-12-03T07:56:53.846Z,9.00
2018-12-03T07:57:53.238Z,12.00
2018-12-03T07:58:53.221Z,10.10
2018-12-03T07:59:53.229Z,10.90
2018-12-03T08:00:53.202Z,10.00
2018-12-03T08:01:53.850Z,9.40
2018-12-03T08:02:53.179Z,8.10
2018-12-03T08:03:53.371Z,10.10
2018-12-03T08:04:53.367Z,10.30
2018-12-03T08:05:53.848Z,8.90
2018-12-03T08:06:53.234Z,12.00
2018-12-03T08:07:53.219Z,7.60
2018-12-03T08:08:53.072Z,7.60
2018-12-03T08:09:53.087Z,7.90
2018-12-03T08:10:53.777Z,13.80
2018-12-03T08:11:52.981Z,10.00
2018-12-03T08:12:52.960Z,9.80
2018-12-03T08:13:52.953Z,9.50
2018-12-03T08:14:52.954Z,11.10
2018-12-03T08:15:52.929Z,10.30
2018-12-03T08:16:52.913Z,11.50
2018-12-03T08:17:52.878Z,9.30
2018-12-03T08:18:52.862Z,11.90
2018-12-03T08:19:56.495Z,10.00
2018-12-03T08:20:52.817Z,12.70
2018-12-03T08:21:52.801Z,9.90
2018-12-03T08:22:52.796Z,12.70
2018-12-03T08:23:52.768Z,10.80
2018-12-03T08:24:52.751Z,8.00
2018-12-03T08:25:52.742Z,11.20
2018-12-03T08:26:52.731Z,9.30
2018-12-03T08:27:52.694Z,11.60
2018-12-03T08:28:52.674Z,9.70
2018-12-03T08:29:52.657Z,11.60
2018-12-03T08:30:52.673Z,11.70
2018-12-03T08:31:52.643Z,13.30
2018-12-03T08:32:52.616Z,12.70
2018-12-03T08:33:52.583Z,11.00
2018-12-03T08:34:52.567Z,9.60
2018-12-03T08:35:52.546Z,10.40
2018-12-03T08:36:52.539Z,10.10
2018-12-03T08:37:52.536Z,11.70
2018-12-03T08:38:52.493Z,12.70
2018-12-03T08:39:52.482Z,9.50
2018-12-03T08:40:52.458Z,9.20
2018-12-03T08:41:52.437Z,14.50
2018-12-03T08:42:52.422Z,10.50
2018-12-03T08:43:52.419Z,9.80
2018-12-03T08:44:52.384Z,11.30
2018-12-03T08:45:52.391Z,11.50
2018-12-03T08:46:52.350Z,11.50
2018-12-03T08:47:52.326Z,11.50
2018-12-03T08:48:52.329Z,11.00
2018-12-03T08:49:52.300Z,11.80
2018-12-03T08:50:52.309Z,10.70
2018-12-03T08:51:52.256Z,12.60
2018-12-03T08:52:52.237Z,11.80
2018-12-03T08:53:52.221Z,12.40
2018-12-03T08:54:52.203Z,10.10
2018-12-03T08:55:52.205Z,12.20
2018-12-03T08:56:52.163Z,10.20
2018-12-03T08:57:52.151Z,10.70
2018-12-03T08:58:52.130Z,11.40
2018-12-03T08:59:52.112Z,11.50
2018-12-03T09:00:52.112Z,11.90
2018-12-03T09:01:52.110Z,14.00
2018-12-03T09:02:52.069Z,13.90
2018-12-03T09:03:52.051Z,13.80
2018-12-03T09:04:52.050Z,12.20
2018-12-03T09:05:52.013Z,14.00
2018-12-03T09:06:51.991Z,11.60
2018-12-03T09:07:51.972Z,12.80
2018-12-03T09:08:51.959Z,12.30
2018-12-03T09:09:51.959Z,12.40
2018-12-03T09:10:51.936Z,14.10
2018-12-03T09:11:51.911Z,9.60
2018-12-03T09:12:51.888Z,12.10
2018-12-03T09:13:51.873Z,11.70
2018-12-03T09:14:51.848Z,12.10
2018-12-03T09:15:51.851Z,12.70
2018-12-03T09:16:51.815Z,14.60
2018-12-03T09:17:51.798Z,14.10
2018-12-03T09:18:51.778Z,12.70
2018-12-03T09:19:51.760Z,13.20
2018-12-03T09:20:51.746Z,12.00
2018-12-03T09:21:51.746Z,12.80
2018-12-03T09:22:51.724Z,12.00
2018-12-03T09:23:51.714Z,14.00
2018-12-03T09:24:51.676Z,14.30
2018-12-03T09:25:51.659Z,12.40
2018-12-03T09:26:51.641Z,16.10
2018-12-03T09:27:51.622Z,12.10
2018-12-03T09:28:51.630Z,13.30
2018-12-03T09:29:51.590Z,14.30
2018-12-03T09:30:51.569Z,14.40
2018-12-03T09:31:51.569Z,14.20
2018-12-03T09:32:51.538Z,16.90
2018-12-03T09:33:51.533Z,16.10
2018-12-03T09:34:51.501Z,13.20
2018-12-03T09:35:51.487Z,14.60
2018-12-03T09:36:51.481Z,14.80
2018-12-03T09:37:51.452Z,14.40
2018-12-03T09:38:51.448Z,14.10
2018-12-03T09:39:51.416Z,16.10
2018-12-03T09:40:51.398Z,15.80
2018-12-03T09:41:51.400Z,11.80
2018-12-03T09:42:51.379Z,16.20
2018-12-03T09:43:51.362Z,12.90
2018-12-03T09:44:51.327Z,16.70
2018-12-03T09:45:51.314Z,14.60
2018-12-03T09:46:51.296Z,16.40
2018-12-03T09:47:54.250Z,15.00
2018-12-03T09:48:51.277Z,16.60
2018-12-03T09:49:51.264Z,14.80
2018-12-03T09:50:51.221Z,16.80
2018-12-03T09:51:51.210Z,17.20
2018-12-03T09:52:51.194Z,16.80
2018-12-03T09:53:51.178Z,14.80
2018-12-03T09:54:51.155Z,15.20
2018-12-03T09:55:51.151Z,17.20
2018-12-03T09:56:51.140Z,14.60
2018-12-03T09:57:51.100Z,13.80
2018-12-03T09:58:51.084Z,15.90
2018-12-03T09:59:51.069Z,13.40
2018-12-03T10:00:51.070Z,16.40
2018-12-03T10:01:51.033Z,17.80
2018-12-03T10:02:51.009Z,14.20
2018-12-03T10:03:51.001Z,15.40
2018-12-03T10:04:50.979Z,16.20
2018-12-03T10:05:50.966Z,16.00
2018-12-03T10:06:50.962Z,17.00
2018-12-03T10:07:50.930Z,13.70
2018-12-03T10:08:50.919Z,14.40
2018-12-03T10:09:50.896Z,12.20
2018-12-03T10:10:50.884Z,12.90
2018-12-03T10:11:50.860Z,12.90
2018-12-03T10:12:50.855Z,13.00
2018-12-03T10:13:50.855Z,12.70
2018-12-03T10:14:50.808Z,12.90
2018-12-03T10:15:50.803Z,15.20
2018-12-03T10:16:50.774Z,14.20
2018-12-03T10:17:50.773Z,14.60
2018-12-03T10:18:50.756Z,13.30
2018-12-03T10:19:50.738Z,13.40
2018-12-03T10:20:50.707Z,13.80
2018-12-03T10:21:50.711Z,12.60
2018-12-03T10:22:50.671Z,13.40
2018-12-03T10:23:50.664Z,13.20
2018-12-03T10:24:50.636Z,13.00
2018-12-03T10:25:50.636Z,14.30
2018-12-03T10:26:50.621Z,13.90
2018-12-03T10:27:50.584Z,13.60
2018-12-03T10:28:50.566Z,12.90
2018-12-03T10:29:50.573Z,14.60
2018-12-03T10:30:50.566Z,13.30
2018-12-03T10:31:50.515Z,12.40
2018-12-03T10:32:50.497Z,14.70
2018-12-03T10:33:50.483Z,12.10
2018-12-03T10:34:50.485Z,14.00
2018-12-03T10:35:50.444Z,11.30
2018-12-03T10:36:50.447Z,11.80
2018-12-03T10:37:50.413Z,14.60
2018-12-03T10:38:50.394Z,12.80
2018-12-03T10:39:50.383Z,12.80
2018-12-03T10:40:50.384Z,13.90
2018-12-03T10:41:50.362Z,15.50
2018-12-03T10:42:50.329Z,14.10
2018-12-03T10:43:50.313Z,14.60
2018-12-03T10:44:50.296Z,14.30
2018-12-03T10:45:50.297Z,13.80
2018-12-03T10:46:50.276Z,12.10
2018-12-03T10:47:50.242Z,15.90
2018-12-03T10:48:50.253Z,12.00
2018-12-03T10:49:50.218Z,12.90
2018-12-03T10:50:50.200Z,13.70
2018-12-03T10:51:50.192Z,14.20
2018-12-03T10:52:50.167Z,14.00
2018-12-03T10:53:50.145Z,12.70
2018-12-03T10:54:50.125Z,17.30
2018-12-03T10:55:50.108Z,15.70
2018-12-03T10:56:50.109Z,14.70
2018-12-03T10:57:50.080Z,14.20
2018-12-03T10:58:50.059Z,11.50
2018-12-03T10:59:50.045Z,15.50
2018-12-03T11:00:50.025Z,13.60
2018-12-03T11:01:50.025Z,12.80
2018-12-03T11:02:50.012Z,13.30
2018-12-03T11:03:49.976Z,14.00
2018-12-03T11:04:49.954Z,16.30
2018-12-03T11:05:49.938Z,14.60
2018-12-03T11:06:49.924Z,13.50
2018-12-03T11:07:49.943Z,16.80
2018-12-03T11:08:49.887Z,14.90
2018-12-03T11:09:49.875Z,15.30
2018-12-03T11:10:49.857Z,13.40
2018-12-03T11:11:49.902Z,14.60
2018-12-03T11:12:49.850Z,14.70
2018-12-03T11:13:49.805Z,16.00
2018-12-03T11:14:49.789Z,10.80
2018-12-03T11:15:49.778Z,11.10
2018-12-03T11:16:49.755Z,15.80
2018-12-03T11:17:49.740Z,14.00
2018-12-03T11:18:49.735Z,15.00
2018-12-03T11:19:49.701Z,12.00
2018-12-03T11:20:49.689Z,14.70
2018-12-03T11:21:49.671Z,14.00
2018-12-03T11:22:49.676Z,12.20
2018-12-03T11:23:49.668Z,11.30
2018-12-03T11:24:49.623Z,16.30
2018-12-03T11:25:49.601Z,13.90
2018-12-03T11:26:49.593Z,15.00
2018-12-03T11:27:49.566Z,12.70
2018-12-03T11:28:49.581Z,11.40
2018-12-03T11:29:49.555Z,12.30
2018-12-03T11:30:50.346Z,13.30
2018-12-03T11:31:49.504Z,11.50
2018-12-03T11:32:49.486Z,10.60
2018-12-03T11:33:49.501Z,11.40
2018-12-03T11:34:49.470Z,11.10
2018-12-03T11:35:49.435Z,13.40
2018-12-03T11:36:49.425Z,12.30
2018-12-03T11:37:49.407Z,12.00
2018-12-03T11:38:49.396Z,11.70
2018-12-03T11:39:49.421Z,12.00
2018-12-03T11:40:49.359Z,10.90
2018-12-03T11:41:49.343Z,12.90
2018-12-03T11:42:49.327Z,12.00
2018-12-03T11:43:49.303Z,14.30
2018-12-03T11:44:49.309Z,13.50
2018-12-03T11:45:49.277Z,13.70
2018-12-03T11:46:49.268Z,13.90
2018-12-03T11:47:49.244Z,15.00
2018-12-03T11:48:49.237Z,13.30
2018-12-03T11:49:49.226Z,14.80
2018-12-03T11:50:49.216Z,12.50
2018-12-03T11:51:49.173Z,14.10
2018-12-03T11:52:49.158Z,12.60
2018-12-03T11:53:49.138Z,13.30
2018-12-03T11:54:49.146Z,12.40
2018-12-03T11:55:49.107Z,11.40
2018-12-03T11:56:49.114Z,12.50
2018-12-03T11:57:49.075Z,12.10
2018-12-03T11:58:49.060Z,11.00
2018-12-03T11:59:49.065Z,13.90
2018-12-03T12:00:49.033Z,11.00
2018-12-03T12:01:49.025Z,11.60
2018-12-03T12:02:48.995Z,10.60
2018-12-03T12:03:48.978Z,12.40
2018-12-03T12:04:48.966Z,13.10
2018-12-03T12:05:48.948Z,11.70
2018-12-03T12:06:48.948Z,12.10
2018-12-03T12:07:48.910Z,10.70
2018-12-03T12:08:48.893Z,12.90
2018-12-03T12:09:48.877Z,11.60
2018-12-03T12:10:48.862Z,11.10
2018-12-03T12:11:48.867Z,10.50
2018-12-03T12:12:48.828Z,13.00
2018-12-03T12:13:48.818Z,11.60
2018-12-03T12:14:48.797Z,12.40
2018-12-03T12:15:48.782Z,11.60
2018-12-03T12:16:48.781Z,12.30
2018-12-03T12:17:48.743Z,11.50
2018-12-03T12:18:48.734Z,10.70
2018-12-03T12:19:48.715Z,11.80
2018-12-03T12:20:48.697Z,11.30
2018-12-03T12:21:48.696Z,10.80
2018-12-03T12:22:48.683Z,11.10
2018-12-03T12:23:48.658Z,11.10
2018-12-03T12:24:48.637Z,12.40
2018-12-03T12:25:48.641Z,11.40
2018-12-03T12:26:48.644Z,13.00
2018-12-03T12:27:48.690Z,10.80
2018-12-03T12:28:48.679Z,12.90
2018-12-03T12:29:49.408Z,12.70
2018-12-03T12:30:48.623Z,11.00
2018-12-03T12:31:48.610Z,11.60
2018-12-03T12:32:48.615Z,13.00
2018-12-03T12:33:48.671Z,13.70
2018-12-03T12:34:48.643Z,14.40
2018-12-03T12:35:48.644Z,12.80
2018-12-03T12:36:48.647Z,11.00
2018-12-03T12:37:48.434Z,12.90
2018-12-03T12:38:48.405Z,13.20
2018-12-03T12:39:48.405Z,11.90
2018-12-03T12:40:48.370Z,10.50
2018-12-03T12:41:48.359Z,10.10
2018-12-03T12:42:48.342Z,11.50
2018-12-03T12:43:48.331Z,11.30
2018-12-03T12:44:48.302Z,11.40
2018-12-03T12:45:48.299Z,12.40
2018-12-03T12:46:48.281Z,12.70
2018-12-03T12:47:48.251Z,12.30
2018-12-03T12:48:48.232Z,13.10
2018-12-03T12:49:48.240Z,9.60
2018-12-03T12:50:48.222Z,12.30
2018-12-03T12:51:51.561Z,13.00
2018-12-03T12:52:48.170Z,12.90
2018-12-03T12:53:48.145Z,10.90
2018-12-03T12:54:48.156Z,12.00
2018-12-03T12:55:48.142Z,11.10
2018-12-03T12:56:48.097Z,10.70
2018-12-03T12:57:48.104Z,9.70
2018-12-03T12:58:48.079Z,9.80
2018-12-03T12:59:48.843Z,9.60
2018-12-03T13:00:48.036Z,10.30
2018-12-03T13:01:48.035Z,10.90
2018-12-03T13:02:48.010Z,10.00
2018-12-03T13:03:48.003Z,12.10
2018-12-03T13:04:47.984Z,9.90
2018-12-03T13:05:47.965Z,10.60
2018-12-03T13:06:47.953Z,11.00
2018-12-03T13:07:47.915Z,12.30
2018-12-03T13:08:47.903Z,11.70
2018-12-03T13:09:47.884Z,10.90
2018-12-03T13:10:47.876Z,8.50
2018-12-03T13:11:47.875Z,11.10
2018-12-03T13:12:47.834Z,10.80
2018-12-03T13:13:47.813Z,10.50